sensor_id;sensor_type;location;lat;lon;timestamp;P1;durP1;ratioP1;P2;durP2;ratioP2
12888;SDS011;56848;49.896;11.424;2022-07-12T04:01:28;2.63;;;1.57;;
12888;SDS011;56848;49.896;11.424;2022-07-12T04:03:55;1.83;;;1.67;;
12888;SDS011;56848;49.896;11.424;2022-07-12T04:06:21;1.77;;;1.50;;
12888;SDS011;56848;49.896;11.424;2022-07-12T04:08:46;1.70;;;1.60;;
12888;SDS011;56848;49.896;11.424;2022-07-12T04:11:12;2.77;;;1.80;;
12888;SDS011;56848;49.896;11.424;2022-07-12T04:13:37;2.13;;;2.03;;
12888;SDS011;56848;49.896;11.424;2022-07-12T04:16:03;1.90;;;1.80;;
12888;SDS011;56848;49.896;11.424;2022-07-12T04:18:29;1.87;;;1.77;;
12888;SDS011;56848;49.896;11.424;2022-07-12T04:20:55;1.97;;;1.87;;
12888;SDS011;56848;49.896;11.424;2022-07-12T04:23:20;1.90;;;1.80;;
12888;SDS011;56848;49.896;11.424;2022-07-12T04:25:46;1.67;;;1.50;;
12888;SDS011;56848;49.896;11.424;2022-07-12T04:28:11;1.67;;;1.57;;
12888;SDS011;56848;49.896;11.424;2022-07-12T04:30:37;1.47;;;1.40;;
12888;SDS011;56848;49.896;11.424;2022-07-12T04:33:02;1.80;;;1.70;;
12888;SDS011;56848;49.896;11.424;2022-07-12T04:35:28;1.80;;;1.70;;
12888;SDS011;56848;49.896;11.424;2022-07-12T04:37:54;5.00;;;2.00;;
12888;SDS011;56848;49.896;11.424;2022-07-12T04:40:19;1.93;;;1.83;;
12888;SDS011;56848;49.896;11.424;2022-07-12T04:42:45;3.40;;;3.20;;
12888;SDS011;56848;49.896;11.424;2022-07-12T04:45:11;3.90;;;3.50;;
12888;SDS011;56848;49.896;11.424;2022-07-12T04:47:36;5.40;;;4.03;;
12888;SDS011;56848;49.896;11.424;2022-07-12T04:50:06;6.03;;;4.60;;
12888;SDS011;56848;49.896;11.424;2022-07-12T04:52:32;5.40;;;4.90;;
12888;SDS011;56848;49.896;11.424;2022-07-12T04:54:58;4.73;;;3.60;;
12888;SDS011;56848;49.896;11.424;2022-07-12T04:57:23;4.40;;;4.00;;
12888;SDS011;56848;49.896;11.424;2022-07-12T04:59:49;3.87;;;3.57;;
12888;SDS011;56848;49.896;11.424;2022-07-12T05:02:15;4.90;;;4.40;;
12888;SDS011;56848;49.896;11.424;2022-07-12T05:04:41;4.23;;;3.80;;
12888;SDS011;56848;49.896;11.424;2022-07-12T05:07:06;6.13;;;4.30;;
12888;SDS011;56848;49.896;11.424;2022-07-12T05:09:32;5.07;;;4.43;;
12888;SDS011;56848;49.896;11.424;2022-07-12T05:11:58;4.60;;;4.20;;
12888;SDS011;56848;49.896;11.424;2022-07-12T05:14:23;8.40;;;4.17;;
12888;SDS011;56848;49.896;11.424;2022-07-12T05:16:49;5.47;;;4.43;;
12888;SDS011;56848;49.896;11.424;2022-07-12T05:19:15;5.70;;;4.27;;
12888;SDS011;56848;49.896;11.424;2022-07-12T05:21:41;4.83;;;4.23;;
12888;SDS011;56848;49.896;11.424;2022-07-12T05:24:07;4.57;;;4.17;;
12888;SDS011;56848;49.896;11.424;2022-07-12T05:26:33;4.40;;;4.00;;
12888;SDS011;56848;49.896;11.424;2022-07-12T05:28:59;5.20;;;4.70;;
12888;SDS011;56848;49.896;11.424;2022-07-12T05:31:25;5.03;;;4.53;;
12888;SDS011;56848;49.896;11.424;2022-07-12T05:33:51;4.57;;;3.80;;
12888;SDS011;56848;49.896;11.424;2022-07-12T05:36:18;5.20;;;4.70;;
12888;SDS011;56848;49.896;11.424;2022-07-12T05:38:43;4.53;;;3.90;;
12888;SDS011;56848;49.896;11.424;2022-07-12T05:41:09;5.27;;;4.77;;
12888;SDS011;56848;49.896;11.424;2022-07-12T05:43:35;5.40;;;4.90;;
12888;SDS011;56848;49.896;11.424;2022-07-12T05:46:00;4.50;;;4.10;;
12888;SDS011;56848;49.896;11.424;2022-07-12T05:48:26;5.90;;;4.40;;
12888;SDS011;56848;49.896;11.424;2022-07-12T05:50:52;5.00;;;4.50;;
12888;SDS011;56848;49.896;11.424;2022-07-12T05:53:17;5.50;;;5.00;;
12888;SDS011;56848;49.896;11.424;2022-07-12T05:55:49;4.37;;;3.97;;
12888;SDS011;56848;49.896;11.424;2022-07-12T05:58:16;6.97;;;5.70;;
12888;SDS011;56848;49.896;11.424;2022-07-12T06:00:43;5.50;;;5.00;;
12888;SDS011;56848;49.896;11.424;2022-07-12T06:03:10;6.63;;;5.60;;
12888;SDS011;56848;49.896;11.424;2022-07-12T06:05:36;6.57;;;4.87;;
12888;SDS011;56848;49.896;11.424;2022-07-12T06:08:02;5.73;;;5.13;;
12888;SDS011;56848;49.896;11.424;2022-07-12T06:10:28;6.63;;;4.87;;
12888;SDS011;56848;49.896;11.424;2022-07-12T06:12:54;4.90;;;4.40;;
12888;SDS011;56848;49.896;11.424;2022-07-12T06:15:20;6.80;;;5.00;;
12888;SDS011;56848;49.896;11.424;2022-07-12T06:17:45;4.90;;;4.50;;
12888;SDS011;56848;49.896;11.424;2022-07-12T06:20:13;4.70;;;4.30;;
12888;SDS011;56848;49.896;11.424;2022-07-12T06:22:38;4.47;;;4.10;;
12888;SDS011;56848;49.896;11.424;2022-07-12T06:25:04;4.93;;;4.33;;
12888;SDS011;56848;49.896;11.424;2022-07-12T06:27:30;4.23;;;3.93;;
12888;SDS011;56848;49.896;11.424;2022-07-12T06:29:56;5.63;;;4.03;;
12888;SDS011;56848;49.896;11.424;2022-07-12T06:32:22;5.33;;;4.13;;
12888;SDS011;56848;49.896;11.424;2022-07-12T06:34:47;4.60;;;3.67;;
12888;SDS011;56848;49.896;11.424;2022-07-12T06:37:13;3.80;;;3.50;;
12888;SDS011;56848;49.896;11.424;2022-07-12T06:39:40;4.53;;;3.60;;
12888;SDS011;56848;49.896;11.424;2022-07-12T06:42:06;3.97;;;3.67;;
12888;SDS011;56848;49.896;11.424;2022-07-12T06:44:32;3.30;;;3.10;;
12888;SDS011;56848;49.896;11.424;2022-07-12T06:46:58;3.47;;;3.17;;
12888;SDS011;56848;49.896;11.424;2022-07-12T06:49:24;3.23;;;3.03;;
12888;SDS011;56848;49.896;11.424;2022-07-12T06:51:51;6.73;;;2.70;;
12888;SDS011;56848;49.896;11.424;2022-07-12T06:54:16;3.60;;;3.30;;
12888;SDS011;56848;49.896;11.424;2022-07-12T06:56:42;2.90;;;2.50;;
12888;SDS011;56848;49.896;11.424;2022-07-12T06:59:08;2.77;;;2.57;;
12888;SDS011;56848;49.896;11.424;2022-07-12T07:01:36;2.93;;;2.70;;
12888;SDS011;56848;49.896;11.424;2022-07-12T07:04:02;2.83;;;2.63;;
12888;SDS011;56848;49.896;11.424;2022-07-12T07:06:28;2.93;;;2.60;;
12888;SDS011;56848;49.896;11.424;2022-07-12T07:08:53;2.73;;;2.63;;
12888;SDS011;56848;49.896;11.424;2022-07-12T07:11:19;2.80;;;2.60;;
12888;SDS011;56848;49.896;11.424;2022-07-12T07:13:45;2.17;;;2.07;;
12888;SDS011;56848;49.896;11.424;2022-07-12T07:16:10;3.10;;;2.90;;
12888;SDS011;56848;49.896;11.424;2022-07-12T07:18:36;2.60;;;2.43;;
12888;SDS011;56848;49.896;11.424;2022-07-12T07:21:01;3.00;;;2.80;;
12888;SDS011;56848;49.896;11.424;2022-07-12T07:23:27;2.73;;;2.60;;
12888;SDS011;56848;49.896;11.424;2022-07-12T07:25:53;2.30;;;2.20;;
12888;SDS011;56848;49.896;11.424;2022-07-12T07:28:19;2.73;;;2.53;;
12888;SDS011;56848;49.896;11.424;2022-07-12T07:30:44;2.60;;;2.40;;
12888;SDS011;56848;49.896;11.424;2022-07-12T07:33:23;11.30;;;2.00;;
12888;SDS011;56848;49.896;11.424;2022-07-12T07:35:50;2.43;;;2.23;;
12888;SDS011;56848;49.896;11.424;2022-07-12T07:38:16;2.27;;;2.13;;
12888;SDS011;56848;49.896;11.424;2022-07-12T07:40:43;2.50;;;2.33;;
12888;SDS011;56848;49.896;11.424;2022-07-12T07:43:09;4.17;;;2.07;;
12888;SDS011;56848;49.896;11.424;2022-07-12T07:45:35;2.80;;;2.00;;
12888;SDS011;56848;49.896;11.424;2022-07-12T07:48:00;2.90;;;2.70;;
12888;SDS011;56848;49.896;11.424;2022-07-12T07:50:27;2.17;;;2.00;;
12888;SDS011;56848;49.896;11.424;2022-07-12T07:52:52;2.90;;;1.90;;
12888;SDS011;56848;49.896;11.424;2022-07-12T07:55:18;2.13;;;2.03;;
12888;SDS011;56848;49.896;11.424;2022-07-12T07:57:44;2.00;;;1.90;;
12888;SDS011;56848;49.896;11.424;2022-07-12T08:00:11;2.10;;;2.00;;
12888;SDS011;56848;49.896;11.424;2022-07-12T08:02:38;1.90;;;1.90;;
12888;SDS011;56848;49.896;11.424;2022-07-12T08:05:03;2.33;;;2.23;;
12888;SDS011;56848;49.896;11.424;2022-07-12T08:07:29;2.13;;;1.93;;
12888;SDS011;56848;49.896;11.424;2022-07-12T08:09:55;1.73;;;1.70;;
12888;SDS011;56848;49.896;11.424;2022-07-12T08:12:21;5.53;;;1.70;;
12888;SDS011;56848;49.896;11.424;2022-07-12T08:14:46;1.70;;;1.50;;
12888;SDS011;56848;49.896;11.424;2022-07-12T08:17:12;1.70;;;1.60;;
12888;SDS011;56848;49.896;11.424;2022-07-12T08:19:37;1.33;;;1.33;;
12888;SDS011;56848;49.896;11.424;2022-07-12T08:22:03;1.40;;;1.40;;
12888;SDS011;56848;49.896;11.424;2022-07-12T08:24:29;1.60;;;1.50;;
12888;SDS011;56848;49.896;11.424;2022-07-12T08:26:54;1.30;;;1.30;;
12888;SDS011;56848;49.896;11.424;2022-07-12T08:29:20;1.50;;;1.40;;
12888;SDS011;56848;49.896;11.424;2022-07-12T08:31:45;1.87;;;1.40;;
12888;SDS011;56848;49.896;11.424;2022-07-12T08:34:13;1.40;;;1.40;;
12888;SDS011;56848;49.896;11.424;2022-07-12T08:36:38;1.50;;;1.40;;
12888;SDS011;56848;49.896;11.424;2022-07-12T08:39:04;1.40;;;1.30;;
12888;SDS011;56848;49.896;11.424;2022-07-12T08:41:30;1.30;;;1.30;;
12888;SDS011;56848;49.896;11.424;2022-07-12T08:43:56;1.50;;;1.40;;
12888;SDS011;56848;49.896;11.424;2022-07-12T08:46:21;1.30;;;1.20;;
12888;SDS011;56848;49.896;11.424;2022-07-12T08:48:47;1.33;;;1.33;;
12888;SDS011;56848;49.896;11.424;2022-07-12T08:51:14;3.17;;;1.20;;
12888;SDS011;56848;49.896;11.424;2022-07-12T08:53:43;1.07;;;1.00;;
12888;SDS011;56848;49.896;11.424;2022-07-12T08:59:17;1.70;;;1.27;;
12888;SDS011;56848;49.896;11.424;2022-07-12T09:01:48;1.47;;;1.10;;
12888;SDS011;56848;49.896;11.424;2022-07-12T09:04:24;1.07;;;1.07;;
12888;SDS011;56848;49.896;11.424;2022-07-12T09:06:52;1.47;;;1.10;;
12888;SDS011;56848;49.896;11.424;2022-07-12T09:09:28;1.57;;;1.13;;
12888;SDS011;56848;49.896;11.424;2022-07-12T09:11:55;1.40;;;1.33;;
12888;SDS011;56848;49.896;11.424;2022-07-12T09:14:20;3.90;;;1.20;;
12888;SDS011;56848;49.896;11.424;2022-07-12T09:19:37;1.50;;;1.17;;
12888;SDS011;56848;49.896;11.424;2022-07-12T09:22:03;1.10;;;1.10;;
12888;SDS011;56848;49.896;11.424;2022-07-12T09:24:38;1.80;;;1.10;;
12888;SDS011;56848;49.896;11.424;2022-07-12T09:27:04;1.20;;;1.10;;
12888;SDS011;56848;49.896;11.424;2022-07-12T09:29:30;1.10;;;1.10;;
12888;SDS011;56848;49.896;11.424;2022-07-12T09:31:56;1.00;;;1.00;;
12888;SDS011;56848;49.896;11.424;2022-07-12T09:34:41;1.00;;;1.00;;
12888;SDS011;56848;49.896;11.424;2022-07-12T09:37:25;1.20;;;1.20;;
12888;SDS011;56848;49.896;11.424;2022-07-12T09:39:52;1.00;;;1.00;;
12888;SDS011;56848;49.896;11.424;2022-07-12T09:42:19;1.13;;;1.10;;
12888;SDS011;56848;49.896;11.424;2022-07-12T09:44:45;1.43;;;1.00;;
12888;SDS011;56848;49.896;11.424;2022-07-12T09:47:11;1.00;;;1.00;;
12888;SDS011;56848;49.896;11.424;2022-07-12T09:49:40;1.80;;;1.30;;
12888;SDS011;56848;49.896;11.424;2022-07-12T09:52:08;0.87;;;0.87;;
12888;SDS011;56848;49.896;11.424;2022-07-12T09:54:39;2.30;;;1.20;;
12888;SDS011;56848;49.896;11.424;2022-07-12T09:57:10;1.10;;;1.10;;
12888;SDS011;56848;49.896;11.424;2022-07-12T09:59:44;1.13;;;1.03;;
12888;SDS011;56848;49.896;11.424;2022-07-12T10:02:11;1.90;;;1.10;;
12888;SDS011;56848;49.896;11.424;2022-07-12T10:04:40;1.03;;;0.90;;
12888;SDS011;56848;49.896;11.424;2022-07-12T10:07:07;0.80;;;0.80;;
12888;SDS011;56848;49.896;11.424;2022-07-12T10:09:34;0.80;;;0.80;;
12888;SDS011;56848;49.896;11.424;2022-07-12T10:12:00;1.10;;;1.10;;
12888;SDS011;56848;49.896;11.424;2022-07-12T10:14:27;1.93;;;0.90;;
12888;SDS011;56848;49.896;11.424;2022-07-12T10:16:53;1.33;;;1.00;;
12888;SDS011;56848;49.896;11.424;2022-07-12T10:21:53;4.00;;;1.20;;
12888;SDS011;56848;49.896;11.424;2022-07-12T10:26:58;0.90;;;0.90;;
12888;SDS011;56848;49.896;11.424;2022-07-12T10:29:25;1.00;;;1.00;;
12888;SDS011;56848;49.896;11.424;2022-07-12T10:31:51;0.97;;;0.97;;
12888;SDS011;56848;49.896;11.424;2022-07-12T10:34:21;1.70;;;1.13;;
12888;SDS011;56848;49.896;11.424;2022-07-12T10:39:22;1.10;;;1.00;;
12888;SDS011;56848;49.896;11.424;2022-07-12T10:44:39;1.00;;;1.00;;
12888;SDS011;56848;49.896;11.424;2022-07-12T10:47:11;1.10;;;1.00;;
12888;SDS011;56848;49.896;11.424;2022-07-12T10:49:50;0.90;;;0.90;;
12888;SDS011;56848;49.896;11.424;2022-07-12T10:52:23;0.93;;;0.93;;
12888;SDS011;56848;49.896;11.424;2022-07-12T10:58:01;14.30;;;2.27;;
12888;SDS011;56848;49.896;11.424;2022-07-12T11:00:02;16.40;;;1.40;;
12888;SDS011;56848;49.896;11.424;2022-07-12T11:02:28;6.37;;;1.10;;
12888;SDS011;56848;49.896;11.424;2022-07-12T11:04:55;72.70;;;5.07;;
12888;SDS011;56848;49.896;11.424;2022-07-12T11:07:21;1.83;;;0.87;;
12888;SDS011;56848;49.896;11.424;2022-07-12T11:09:52;2.70;;;1.23;;
12888;SDS011;56848;49.896;11.424;2022-07-12T11:12:19;9.23;;;1.53;;
12888;SDS011;56848;49.896;11.424;2022-07-12T11:14:45;1.10;;;1.00;;
12888;SDS011;56848;49.896;11.424;2022-07-12T11:17:11;0.80;;;0.80;;
12888;SDS011;56848;49.896;11.424;2022-07-12T11:19:37;95.70;;;6.50;;
12888;SDS011;56848;49.896;11.424;2022-07-12T11:22:02;1.47;;;1.30;;
12888;SDS011;56848;49.896;11.424;2022-07-12T11:24:29;1.07;;;0.90;;
12888;SDS011;56848;49.896;11.424;2022-07-12T11:26:57;0.90;;;0.90;;
12888;SDS011;56848;49.896;11.424;2022-07-12T11:29:24;1.10;;;1.10;;
12888;SDS011;56848;49.896;11.424;2022-07-12T11:31:59;1.30;;;1.20;;
12888;SDS011;56848;49.896;11.424;2022-07-12T11:34:26;1.27;;;1.00;;
12888;SDS011;56848;49.896;11.424;2022-07-12T11:36:55;1.17;;;0.80;;
12888;SDS011;56848;49.896;11.424;2022-07-12T11:41:58;1.10;;;1.00;;
12888;SDS011;56848;49.896;11.424;2022-07-12T11:44:40;0.80;;;0.80;;
12888;SDS011;56848;49.896;11.424;2022-07-12T11:47:16;0.90;;;0.90;;
12888;SDS011;56848;49.896;11.424;2022-07-12T11:49:50;1.80;;;0.93;;
12888;SDS011;56848;49.896;11.424;2022-07-12T11:52:21;7.10;;;1.00;;
12888;SDS011;56848;49.896;11.424;2022-07-12T11:54:48;1.10;;;1.10;;
12888;SDS011;56848;49.896;11.424;2022-07-12T11:57:18;1.00;;;1.00;;
12888;SDS011;56848;49.896;11.424;2022-07-12T11:59:45;0.90;;;0.90;;
12888;SDS011;56848;49.896;11.424;2022-07-12T12:02:11;1.00;;;1.00;;
12888;SDS011;56848;49.896;11.424;2022-07-12T12:04:58;1.17;;;1.07;;
12888;SDS011;56848;49.896;11.424;2022-07-12T12:07:23;2.30;;;0.90;;
12888;SDS011;56848;49.896;11.424;2022-07-12T12:12:42;4.53;;;1.13;;
12888;SDS011;56848;49.896;11.424;2022-07-12T12:15:09;2.30;;;1.10;;
12888;SDS011;56848;49.896;11.424;2022-07-12T12:17:44;0.87;;;0.87;;
12888;SDS011;56848;49.896;11.424;2022-07-12T12:20:15;0.90;;;0.90;;
12888;SDS011;56848;49.896;11.424;2022-07-12T12:22:43;2.30;;;0.97;;
12888;SDS011;56848;49.896;11.424;2022-07-12T12:25:10;2.50;;;1.20;;
12888;SDS011;56848;49.896;11.424;2022-07-12T12:27:42;1.47;;;1.20;;
12888;SDS011;56848;49.896;11.424;2022-07-12T12:30:09;1.10;;;1.00;;
12888;SDS011;56848;49.896;11.424;2022-07-12T12:32:46;2.73;;;1.13;;
12888;SDS011;56848;49.896;11.424;2022-07-12T12:35:21;1.00;;;1.00;;
12888;SDS011;56848;49.896;11.424;2022-07-12T12:37:58;0.80;;;0.80;;
12888;SDS011;56848;49.896;11.424;2022-07-12T12:40:26;1.80;;;0.80;;
12888;SDS011;56848;49.896;11.424;2022-07-12T12:43:04;1.53;;;1.10;;
12888;SDS011;56848;49.896;11.424;2022-07-12T12:45:33;1.00;;;1.00;;
12888;SDS011;56848;49.896;11.424;2022-07-12T12:48:00;3.40;;;1.10;;
12888;SDS011;56848;49.896;11.424;2022-07-12T12:53:25;2.30;;;1.00;;
12888;SDS011;56848;49.896;11.424;2022-07-12T12:55:51;0.90;;;0.90;;
12888;SDS011;56848;49.896;11.424;2022-07-12T12:58:18;1.00;;;1.00;;
12888;SDS011;56848;49.896;11.424;2022-07-12T13:00:46;1.90;;;0.93;;
12888;SDS011;56848;49.896;11.424;2022-07-12T13:03:13;0.97;;;0.97;;
12888;SDS011;56848;49.896;11.424;2022-07-12T13:05:40;0.93;;;0.93;;
12888;SDS011;56848;49.896;11.424;2022-07-12T13:08:07;3.73;;;1.10;;
12888;SDS011;56848;49.896;11.424;2022-07-12T13:10:33;2.20;;;1.00;;
12888;SDS011;56848;49.896;11.424;2022-07-12T13:13:00;1.13;;;1.10;;
12888;SDS011;56848;49.896;11.424;2022-07-12T13:15:27;1.17;;;1.17;;
12888;SDS011;56848;49.896;11.424;2022-07-12T13:17:53;2.30;;;0.90;;
12888;SDS011;56848;49.896;11.424;2022-07-12T13:20:19;1.00;;;1.00;;
12888;SDS011;56848;49.896;11.424;2022-07-12T13:22:45;1.27;;;1.00;;
12888;SDS011;56848;49.896;11.424;2022-07-12T13:25:12;1.00;;;0.80;;
12888;SDS011;56848;49.896;11.424;2022-07-12T13:27:39;1.40;;;1.00;;
12888;SDS011;56848;49.896;11.424;2022-07-12T13:30:06;0.90;;;0.90;;
12888;SDS011;56848;49.896;11.424;2022-07-12T13:32:33;0.90;;;0.90;;
12888;SDS011;56848;49.896;11.424;2022-07-12T13:34:59;1.77;;;1.00;;
12888;SDS011;56848;49.896;11.424;2022-07-12T13:37:25;8.40;;;1.50;;
12888;SDS011;56848;49.896;11.424;2022-07-12T13:39:51;7.23;;;1.50;;
12888;SDS011;56848;49.896;11.424;2022-07-12T13:42:39;4.53;;;1.37;;
12888;SDS011;56848;49.896;11.424;2022-07-12T13:45:06;3.40;;;1.00;;
12888;SDS011;56848;49.896;11.424;2022-07-12T13:47:34;6.33;;;1.10;;
12888;SDS011;56848;49.896;11.424;2022-07-12T13:50:00;4.60;;;1.10;;
12888;SDS011;56848;49.896;11.424;2022-07-12T13:52:26;3.50;;;1.20;;
12888;SDS011;56848;49.896;11.424;2022-07-12T13:54:52;1.07;;;1.07;;
12888;SDS011;56848;49.896;11.424;2022-07-12T13:57:18;0.80;;;0.80;;
12888;SDS011;56848;49.896;11.424;2022-07-12T13:59:44;2.30;;;1.13;;
12888;SDS011;56848;49.896;11.424;2022-07-12T14:02:10;0.90;;;0.90;;
12888;SDS011;56848;49.896;11.424;2022-07-12T14:04:37;1.17;;;0.80;;
12888;SDS011;56848;49.896;11.424;2022-07-12T14:07:03;2.43;;;1.20;;
12888;SDS011;56848;49.896;11.424;2022-07-12T14:09:29;3.33;;;1.17;;
12888;SDS011;56848;49.896;11.424;2022-07-12T14:11:55;1.03;;;1.03;;
12888;SDS011;56848;49.896;11.424;2022-07-12T14:14:21;1.00;;;1.00;;
12888;SDS011;56848;49.896;11.424;2022-07-12T14:17:06;0.90;;;0.90;;
12888;SDS011;56848;49.896;11.424;2022-07-12T14:19:32;1.67;;;1.00;;
12888;SDS011;56848;49.896;11.424;2022-07-12T14:21:58;1.13;;;0.97;;
12888;SDS011;56848;49.896;11.424;2022-07-12T14:24:24;26.70;;;1.60;;
12888;SDS011;56848;49.896;11.424;2022-07-12T14:26:50;0.87;;;0.87;;
12888;SDS011;56848;49.896;11.424;2022-07-12T14:29:16;8.53;;;1.10;;
12888;SDS011;56848;49.896;11.424;2022-07-12T14:31:42;12.00;;;1.00;;
12888;SDS011;56848;49.896;11.424;2022-07-12T14:34:08;4.10;;;1.00;;
12888;SDS011;56848;49.896;11.424;2022-07-12T14:36:34;0.90;;;0.90;;
12888;SDS011;56848;49.896;11.424;2022-07-12T14:39:00;0.93;;;0.93;;
12888;SDS011;56848;49.896;11.424;2022-07-12T14:41:26;0.80;;;0.80;;
12888;SDS011;56848;49.896;11.424;2022-07-12T14:43:52;1.17;;;1.00;;
12888;SDS011;56848;49.896;11.424;2022-07-12T14:46:19;1.03;;;0.90;;
12888;SDS011;56848;49.896;11.424;2022-07-12T14:48:45;1.07;;;0.80;;
12888;SDS011;56848;49.896;11.424;2022-07-12T14:51:11;1.13;;;1.03;;
12888;SDS011;56848;49.896;11.424;2022-07-12T14:53:37;1.50;;;0.93;;
12888;SDS011;56848;49.896;11.424;2022-07-12T14:56:03;0.90;;;0.90;;
12888;SDS011;56848;49.896;11.424;2022-07-12T14:58:29;1.07;;;0.93;;
12888;SDS011;56848;49.896;11.424;2022-07-12T15:00:55;6.63;;;1.30;;
12888;SDS011;56848;49.896;11.424;2022-07-12T15:03:21;5.80;;;1.20;;
12888;SDS011;56848;49.896;11.424;2022-07-12T15:05:48;3.33;;;1.03;;
12888;SDS011;56848;49.896;11.424;2022-07-12T15:08:14;2.00;;;1.10;;
12888;SDS011;56848;49.896;11.424;2022-07-12T15:10:40;0.93;;;0.93;;
12888;SDS011;56848;49.896;11.424;2022-07-12T15:13:06;0.93;;;0.93;;
12888;SDS011;56848;49.896;11.424;2022-07-12T15:15:32;4.20;;;1.00;;
12888;SDS011;56848;49.896;11.424;2022-07-12T15:17:58;1.00;;;0.83;;
12888;SDS011;56848;49.896;11.424;2022-07-12T15:20:25;3.63;;;1.43;;
12888;SDS011;56848;49.896;11.424;2022-07-12T15:22:51;1.10;;;1.10;;
12888;SDS011;56848;49.896;11.424;2022-07-12T15:25:17;1.90;;;0.93;;
12888;SDS011;56848;49.896;11.424;2022-07-12T15:27:43;1.03;;;1.03;;
12888;SDS011;56848;49.896;11.424;2022-07-12T15:30:10;3.77;;;0.90;;
12888;SDS011;56848;49.896;11.424;2022-07-12T15:32:37;2.10;;;1.03;;
12888;SDS011;56848;49.896;11.424;2022-07-12T15:35:03;2.30;;;1.73;;
12888;SDS011;56848;49.896;11.424;2022-07-12T15:37:29;1.40;;;1.30;;
12888;SDS011;56848;49.896;11.424;2022-07-12T15:39:55;1.33;;;1.20;;
12888;SDS011;56848;49.896;11.424;2022-07-12T15:42:21;0.80;;;0.80;;
12888;SDS011;56848;49.896;11.424;2022-07-12T15:44:47;1.10;;;1.00;;
12888;SDS011;56848;49.896;11.424;2022-07-12T15:47:13;1.00;;;1.00;;
12888;SDS011;56848;49.896;11.424;2022-07-12T15:49:40;2.00;;;1.00;;
12888;SDS011;56848;49.896;11.424;2022-07-12T15:52:07;1.00;;;1.00;;
12888;SDS011;56848;49.896;11.424;2022-07-12T15:54:52;1.00;;;0.97;;
12888;SDS011;56848;49.896;11.424;2022-07-12T15:57:19;1.20;;;1.10;;
12888;SDS011;56848;49.896;11.424;2022-07-12T15:59:45;0.83;;;0.83;;
12888;SDS011;56848;49.896;11.424;2022-07-12T16:02:11;1.10;;;1.10;;
12888;SDS011;56848;49.896;11.424;2022-07-12T16:04:37;0.90;;;0.90;;
12888;SDS011;56848;49.896;11.424;2022-07-12T16:07:03;3.07;;;1.10;;
12888;SDS011;56848;49.896;11.424;2022-07-12T16:09:29;1.00;;;1.00;;
12888;SDS011;56848;49.896;11.424;2022-07-12T16:11:56;0.90;;;0.90;;
12888;SDS011;56848;49.896;11.424;2022-07-12T16:14:22;4.53;;;1.00;;
12888;SDS011;56848;49.896;11.424;2022-07-12T16:16:50;3.20;;;1.10;;
12888;SDS011;56848;49.896;11.424;2022-07-12T16:19:16;3.63;;;1.47;;
12888;SDS011;56848;49.896;11.424;2022-07-12T16:21:42;3.70;;;1.10;;
12888;SDS011;56848;49.896;11.424;2022-07-12T16:24:08;9.70;;;1.20;;
12888;SDS011;56848;49.896;11.424;2022-07-12T16:26:34;11.83;;;1.17;;
12888;SDS011;56848;49.896;11.424;2022-07-12T16:29:00;4.93;;;1.00;;
12888;SDS011;56848;49.896;11.424;2022-07-12T16:31:26;2.63;;;1.10;;
12888;SDS011;56848;49.896;11.424;2022-07-12T16:33:52;2.00;;;0.83;;
12888;SDS011;56848;49.896;11.424;2022-07-12T16:36:18;0.90;;;0.90;;
12888;SDS011;56848;49.896;11.424;2022-07-12T16:38:44;3.80;;;1.10;;
12888;SDS011;56848;49.896;11.424;2022-07-12T16:41:10;14.03;;;1.30;;
12888;SDS011;56848;49.896;11.424;2022-07-12T16:43:37;2.10;;;0.93;;
12888;SDS011;56848;49.896;11.424;2022-07-12T16:46:04;0.90;;;0.90;;
12888;SDS011;56848;49.896;11.424;2022-07-12T16:48:30;0.80;;;0.80;;
12888;SDS011;56848;49.896;11.424;2022-07-12T16:50:56;0.90;;;0.90;;
12888;SDS011;56848;49.896;11.424;2022-07-12T16:53:41;1.10;;;1.10;;
12888;SDS011;56848;49.896;11.424;2022-07-12T16:56:08;0.93;;;0.93;;
12888;SDS011;56848;49.896;11.424;2022-07-12T16:58:36;1.03;;;0.90;;
12888;SDS011;56848;49.896;11.424;2022-07-12T17:01:02;0.80;;;0.80;;
12888;SDS011;56848;49.896;11.424;2022-07-12T17:03:28;10.97;;;0.90;;
12888;SDS011;56848;49.896;11.424;2022-07-12T17:05:54;2.93;;;1.00;;
12888;SDS011;56848;49.896;11.424;2022-07-12T17:08:20;2.00;;;1.00;;
12888;SDS011;56848;49.896;11.424;2022-07-12T17:10:46;1.20;;;1.10;;
12888;SDS011;56848;49.896;11.424;2022-07-12T17:13:12;0.93;;;0.93;;
12888;SDS011;56848;49.896;11.424;2022-07-12T17:15:38;1.03;;;0.90;;
12888;SDS011;56848;49.896;11.424;2022-07-12T17:18:04;0.90;;;0.90;;
12888;SDS011;56848;49.896;11.424;2022-07-12T17:20:30;1.43;;;1.20;;
12888;SDS011;56848;49.896;11.424;2022-07-12T17:22:57;2.43;;;1.17;;
12888;SDS011;56848;49.896;11.424;2022-07-12T17:25:23;1.03;;;1.03;;
12888;SDS011;56848;49.896;11.424;2022-07-12T17:27:49;1.00;;;1.00;;
12888;SDS011;56848;49.896;11.424;2022-07-12T17:30:15;4.73;;;1.00;;
12888;SDS011;56848;49.896;11.424;2022-07-12T17:32:41;0.90;;;0.90;;
12888;SDS011;56848;49.896;11.424;2022-07-12T17:35:09;1.20;;;1.10;;
12888;SDS011;56848;49.896;11.424;2022-07-12T17:37:36;5.50;;;1.00;;
12888;SDS011;56848;49.896;11.424;2022-07-12T17:40:02;1.00;;;1.00;;
12888;SDS011;56848;49.896;11.424;2022-07-12T17:42:29;0.90;;;0.90;;
12888;SDS011;56848;49.896;11.424;2022-07-12T17:44:55;1.50;;;1.00;;
12888;SDS011;56848;49.896;11.424;2022-07-12T17:47:21;1.90;;;1.00;;
12888;SDS011;56848;49.896;11.424;2022-07-12T17:49:47;3.97;;;1.17;;
12888;SDS011;56848;49.896;11.424;2022-07-12T17:52:13;2.50;;;1.00;;
12888;SDS011;56848;49.896;11.424;2022-07-12T17:54:39;3.33;;;1.00;;
12888;SDS011;56848;49.896;11.424;2022-07-12T17:57:05;2.43;;;1.00;;
12888;SDS011;56848;49.896;11.424;2022-07-12T17:59:31;5.23;;;1.13;;
12888;SDS011;56848;49.896;11.424;2022-07-12T18:01:57;1.70;;;1.60;;
12888;SDS011;56848;49.896;11.424;2022-07-12T18:04:23;1.10;;;1.10;;
12888;SDS011;56848;49.896;11.424;2022-07-12T18:06:49;1.20;;;1.10;;
12888;SDS011;56848;49.896;11.424;2022-07-12T18:09:15;1.37;;;0.90;;
12888;SDS011;56848;49.896;11.424;2022-07-12T18:11:41;3.80;;;1.30;;
12888;SDS011;56848;49.896;11.424;2022-07-12T18:14:26;1.93;;;0.90;;
12888;SDS011;56848;49.896;11.424;2022-07-12T18:17:07;1.30;;;1.10;;
12888;SDS011;56848;49.896;11.424;2022-07-12T18:19:52;1.07;;;1.00;;
12888;SDS011;56848;49.896;11.424;2022-07-12T18:22:18;1.90;;;0.90;;
12888;SDS011;56848;49.896;11.424;2022-07-12T18:24:44;1.23;;;0.83;;
12888;SDS011;56848;49.896;11.424;2022-07-12T18:27:10;3.43;;;1.20;;
12888;SDS011;56848;49.896;11.424;2022-07-12T18:29:36;1.83;;;1.27;;
12888;SDS011;56848;49.896;11.424;2022-07-12T18:32:02;1.30;;;1.20;;
12888;SDS011;56848;49.896;11.424;2022-07-12T18:34:29;0.97;;;0.97;;
12888;SDS011;56848;49.896;11.424;2022-07-12T18:36:55;1.10;;;1.10;;
12888;SDS011;56848;49.896;11.424;2022-07-12T18:39:21;1.10;;;1.00;;
12888;SDS011;56848;49.896;11.424;2022-07-12T18:41:48;1.17;;;1.00;;
12888;SDS011;56848;49.896;11.424;2022-07-12T18:44:14;1.23;;;1.13;;
12888;SDS011;56848;49.896;11.424;2022-07-12T18:46:40;1.10;;;1.10;;
12888;SDS011;56848;49.896;11.424;2022-07-12T18:49:06;1.10;;;1.10;;
12888;SDS011;56848;49.896;11.424;2022-07-12T18:51:33;1.53;;;1.00;;
12888;SDS011;56848;49.896;11.424;2022-07-12T18:53:59;1.30;;;1.10;;
12888;SDS011;56848;49.896;11.424;2022-07-12T18:56:25;2.00;;;1.00;;
12888;SDS011;56848;49.896;11.424;2022-07-12T18:58:51;1.13;;;1.13;;
12888;SDS011;56848;49.896;11.424;2022-07-12T19:01:17;4.10;;;1.20;;